Time;durP1;ratioP1;P1;durP2;ratioP2;P2;SDS_P1;SDS_P2;PMS_P1;PMS_P2;Temp;Humidity;BMP_temperature;BMP_pressure;BME280_temperature;BME280_humidity;BME280_pressure;Samples;Min_cycle;Max_cycle;Signal;HPM_P1;HPM_P2
2023/09/13 00:00:49;;;;;;;5.80;4.60;;;;;;;16.83;57.84;95124.53;5114983;28;20191;-66
2023/09/13 00:03:16;;;;;;;4.60;4.20;;;;;;;16.82;57.92;95129.31;5116093;28;20188;-66
2023/09/13 00:05:43;;;;;;;5.05;3.97;;;;;;;16.80;58.21;95122.53;5114774;28;20550;-66
2023/09/13 00:08:10;;;;;;;5.85;4.63;;;;;;;16.80;58.50;95128.91;5115120;28;20533;-66
2023/09/13 00:10:36;;;;;;;7.53;4.75;;;;;;;16.80;58.39;95134.47;5114972;28;20202;-66
2023/09/13 00:13:03;;;;;;;6.18;4.32;;;;;;;16.78;58.17;95130.50;5114506;28;20572;-66
2023/09/13 00:15:30;;;;;;;4.45;4.05;;;;;;;16.77;58.62;95126.91;5114559;28;20204;-66
2023/09/13 00:17:58;;;;;;;4.65;4.25;;;;;;;16.77;58.49;95126.09;5114441;28;20203;-66
2023/09/13 00:20:27;;;;;;;4.80;4.40;;;;;;;16.66;58.39;95131.59;5114978;28;20207;-66
2023/09/13 00:22:54;;;;;;;5.57;4.07;;;;;;;16.63;58.40;95137.16;5114789;28;20195;-66
2023/09/13 00:25:20;;;;;;;6.45;4.47;;;;;;;16.57;58.50;95133.94;5114946;28;20192;-66
2023/09/13 00:27:47;;;;;;;6.22;4.38;;;;;;;16.55;58.52;95141.88;5114287;28;20230;-66
2023/09/13 00:30:14;;;;;;;5.88;4.25;;;;;;;16.52;58.24;95143.47;5114989;28;20196;-66
2023/09/13 00:32:41;;;;;;;7.65;4.40;;;;;;;16.49;58.50;95138.69;5114406;28;20207;-66
2023/09/13 00:35:09;;;;;;;4.40;4.00;;;;;;;16.51;58.78;95138.28;5114998;28;20188;-67
2023/09/13 00:37:36;;;;;;;4.60;4.00;;;;;;;16.51;58.95;95127.16;5114369;28;20215;-66
2023/09/13 00:40:04;;;;;;;6.53;4.70;;;;;;;16.49;58.69;95132.31;5115418;28;20202;-66
2023/09/13 00:42:31;;;;;;;6.50;4.40;;;;;;;16.43;59.09;95131.88;5114822;28;20631;-66
2023/09/13 00:44:58;;;;;;;5.75;4.45;;;;;;;16.37;58.94;95125.88;5114438;28;20196;-67
2023/09/13 00:47:25;;;;;;;5.15;4.03;;;;;;;16.37;58.81;95134.22;5114731;28;20196;-66
2023/09/13 00:49:51;;;;;;;4.45;4.05;;;;;;;16.34;58.77;95135.03;5114377;28;20200;-66
2023/09/13 00:52:20;;;;;;;4.78;4.20;;;;;;;16.33;58.82;95136.19;5114712;28;20196;-71
2023/09/13 00:54:46;;;;;;;5.00;4.40;;;;;;;16.34;59.21;95137.81;5114484;28;20192;-67
2023/09/13 00:57:14;;;;;;;4.65;4.25;;;;;;;16.34;59.46;95134.22;5114499;28;20192;-68
2023/09/13 00:59:41;;;;;;;4.90;4.40;;;;;;;16.29;59.43;95140.94;5114069;28;20276;-67
2023/09/13 01:02:07;;;;;;;5.65;4.47;;;;;;;16.24;59.72;95132.16;5116367;28;20517;-70
2023/09/13 01:04:35;;;;;;;6.20;3.88;;;;;;;16.17;59.70;95143.25;5118399;28;20536;-67
2023/09/13 01:07:02;;;;;;;5.80;4.22;;;;;;;16.11;59.95;95142.81;5117844;28;20211;-67
2023/09/13 01:09:31;;;;;;;5.10;4.05;;;;;;;16.13;59.57;95141.25;5118249;28;20247;-68
2023/09/13 01:11:57;;;;;;;5.55;4.10;;;;;;;16.14;59.18;95136.47;5117840;28;20202;-70
2023/09/13 01:14:24;;;;;;;5.93;3.80;;;;;;;16.10;59.31;95144.00;5118291;28;20191;-67
2023/09/13 01:16:55;;;;;;;6.25;4.32;;;;;;;16.08;59.62;95138.81;5118397;28;20212;-67
2023/09/13 01:19:38;;;;;;;4.53;3.97;;;;;;;16.10;59.65;95142.00;5117876;28;20244;-68
2023/09/13 01:22:33;;;;;;;5.22;4.25;;;;;;;16.11;59.33;95140.03;5117556;28;20180;-67
2023/09/13 01:25:22;;;;;;;4.85;4.07;;;;;;;16.04;59.24;95140.75;5117624;28;20196;-67
2023/09/13 01:27:54;;;;;;;4.10;3.70;;;;;;;16.00;59.59;95142.72;5117713;28;20215;-67
2023/09/13 01:30:24;;;;;;;5.15;3.92;;;;;;;16.00;59.64;95148.28;5118093;27;20200;-67
2023/09/13 01:32:52;;;;;;;5.43;4.75;;;;;;;16.03;59.64;95143.94;5121272;27;20207;-67
2023/09/13 01:35:19;;;;;;;5.93;4.63;;;;;;;16.01;59.68;95141.56;5121159;27;20195;-67
2023/09/13 01:37:46;;;;;;;4.78;4.28;;;;;;;16.01;59.53;95144.34;5120744;27;20195;-67
2023/09/13 01:40:12;;;;;;;5.15;4.20;;;;;;;16.03;59.57;95144.75;5121618;27;20191;-67
2023/09/13 01:42:41;;;;;;;4.95;4.47;;;;;;;16.04;59.86;95145.53;5121105;27;20187;-67
2023/09/13 01:45:10;;;;;;;7.80;4.30;;;;;;;16.02;59.81;95140.38;5120563;27;20539;-67
2023/09/13 01:47:39;;;;;;;5.65;4.32;;;;;;;16.00;59.58;95142.72;5120955;27;20187;-67
2023/09/13 01:50:07;;;;;;;5.18;3.92;;;;;;;15.97;59.58;95137.94;5120451;27;20187;-67
2023/09/13 01:52:34;;;;;;;5.68;4.10;;;;;;;15.92;59.84;95143.06;5121154;27;20202;-67
2023/09/13 01:55:00;;;;;;;4.90;4.22;;;;;;;15.88;59.37;95135.50;5121113;27;20207;-68
2023/09/13 01:57:27;;;;;;;4.85;4.28;;;;;;;15.86;59.74;95137.84;5120770;27;20186;-67
2023/09/13 01:59:54;;;;;;;4.25;3.85;;;;;;;15.81;59.84;95134.63;5120274;27;20203;-67
2023/09/13 02:02:20;;;;;;;5.78;4.20;;;;;;;15.79;59.96;95137.78;5120799;27;20187;-68
2023/09/13 02:04:49;;;;;;;5.03;3.97;;;;;;;15.72;59.94;95148.84;5120802;27;20194;-67
2023/09/13 02:07:16;;;;;;;4.75;3.75;;;;;;;15.63;60.15;95143.59;5120691;27;20195;-69
2023/09/13 02:09:43;;;;;;;4.90;4.20;;;;;;;15.65;60.39;95146.00;5120028;27;20272;-68
2023/09/13 02:12:12;;;;;;;4.95;4.28;;;;;;;15.69;60.52;95146.84;5120839;27;20201;-67
2023/09/13 02:14:39;;;;;;;5.50;4.07;;;;;;;15.74;60.29;95151.25;5120518;27;20191;-68
2023/09/13 02:17:07;;;;;;;4.80;4.38;;;;;;;15.77;60.40;95153.28;5120564;27;20203;-69
2023/09/13 02:19:34;;;;;;;5.88;3.80;;;;;;;15.77;60.34;95147.72;5120224;27;20199;-68
2023/09/13 02:22:03;;;;;;;4.70;4.28;;;;;;;15.76;60.15;95155.25;5119992;27;20286;-68
2023/09/13 02:24:29;;;;;;;6.18;4.15;;;;;;;15.75;60.52;95147.28;5120190;27;20191;-68
2023/09/13 02:26:56;;;;;;;6.38;4.15;;;;;;;15.76;60.52;95152.47;5120032;27;20195;-69
2023/09/13 02:29:23;;;;;;;4.80;4.00;;;;;;;15.81;60.23;95143.78;5120095;27;20279;-69
2023/09/13 02:31:50;;;;;;;4.60;4.20;;;;;;;15.83;60.22;95140.59;5116114;28;20228;-68
2023/09/13 02:34:17;;;;;;;4.82;3.78;;;;;;;15.78;60.17;95147.31;5116740;28;20199;-69
2023/09/13 02:36:45;;;;;;;5.32;4.22;;;;;;;15.72;60.23;95151.63;5116353;28;20210;-69
2023/09/13 02:39:30;;;;;;;5.30;4.28;;;;;;;15.64;60.34;95147.16;5116502;28;20539;-69
2023/09/13 02:41:57;;;;;;;4.38;3.97;;;;;;;15.59;60.50;95150.31;5116250;28;20191;-68
2023/09/13 02:44:24;;;;;;;5.80;4.28;;;;;;;15.55;60.30;95150.28;5116100;28;20195;-70
2023/09/13 02:46:51;;;;;;;6.13;4.40;;;;;;;15.54;60.42;95159.81;5116496;28;20184;-68
2023/09/13 02:49:17;;;;;;;4.65;4.07;;;;;;;15.48;60.77;95155.75;5116192;28;20651;-68
2023/09/13 02:51:47;;;;;;;7.32;4.03;;;;;;;15.43;60.96;95153.31;5116186;28;20252;-68
2023/09/13 02:54:13;;;;;;;6.20;4.32;;;;;;;15.39;61.24;95158.03;5116291;28;20203;-68
2023/09/13 02:56:41;;;;;;;4.78;4.32;;;;;;;15.34;61.12;95161.97;5116309;28;20199;-68
2023/09/13 02:59:08;;;;;;;5.45;4.55;;;;;;;15.35;61.07;95160.00;5116069;28;20188;-68
2023/09/13 03:01:35;;;;;;;7.55;3.95;;;;;;;15.31;61.08;95164.72;5116072;28;20225;-68
2023/09/13 03:04:02;;;;;;;8.43;5.18;;;;;;;15.33;61.42;95159.59;5115725;28;20196;-68
2023/09/13 03:06:29;;;;;;;7.55;4.90;;;;;;;15.28;61.01;95159.91;5116837;28;20184;-68
2023/09/13 03:08:56;;;;;;;9.43;4.70;;;;;;;15.25;61.03;95163.44;5115513;28;20212;-68
2023/09/13 03:11:23;;;;;;;7.47;5.95;;;;;;;15.29;60.96;95165.09;5116006;28;20594;-68
2023/09/13 03:13:53;;;;;;;5.15;4.40;;;;;;;15.32;61.44;95167.13;5115699;28;20195;-68
2023/09/13 03:16:21;;;;;;;9.10;5.35;;;;;;;15.33;61.03;95174.28;5115518;28;20221;-68
2023/09/13 03:18:49;;;;;;;5.68;4.82;;;;;;;15.29;61.24;95176.22;5115913;28;20204;-68
2023/09/13 03:21:17;;;;;;;6.50;5.65;;;;;;;15.27;61.25;95178.56;5115476;28;20206;-68
2023/09/13 03:23:46;;;;;;;8.10;5.38;;;;;;;15.28;61.32;95176.59;5115225;28;20320;-68
2023/09/13 03:26:14;;;;;;;11.38;5.53;;;;;;;15.27;61.02;95180.56;5115817;28;20584;-68
2023/09/13 03:28:41;;;;;;;8.27;5.22;;;;;;;15.26;60.86;95182.53;5115372;28;20211;-68
2023/09/13 03:31:13;;;;;;;5.78;5.05;;;;;;;15.21;61.04;95182.84;5115334;28;20242;-69
2023/09/13 03:33:40;;;;;;;7.82;4.85;;;;;;;15.18;61.13;95186.41;5115320;28;20642;-71
2023/09/13 03:36:07;;;;;;;7.65;5.47;;;;;;;15.11;61.14;95184.34;5115427;28;20184;-70
2023/09/13 03:38:34;;;;;;;5.93;5.03;;;;;;;15.09;61.47;95183.13;5115094;28;20191;-70
2023/09/13 03:41:03;;;;;;;7.55;5.22;;;;;;;15.08;61.17;95175.97;5115155;28;20199;-69
2023/09/13 03:43:29;;;;;;;6.00;5.25;;;;;;;15.07;61.80;95179.91;5114982;28;20199;-70
2023/09/13 03:45:56;;;;;;;8.07;5.57;;;;;;;15.09;61.91;95183.13;5114892;28;20195;-70
2023/09/13 03:48:24;;;;;;;7.25;4.80;;;;;;;15.09;61.65;95174.78;5115668;28;20592;-70
2023/09/13 03:50:51;;;;;;;6.90;5.07;;;;;;;15.09;61.45;95177.56;5115465;28;20204;-69
2023/09/13 03:53:18;;;;;;;8.05;5.65;;;;;;;15.05;61.61;95185.06;5114987;28;20199;-69
2023/09/13 03:55:45;;;;;;;7.65;5.93;;;;;;;14.99;61.70;95183.78;5114762;28;20196;-69
2023/09/13 03:58:11;;;;;;;8.60;6.57;;;;;;;14.98;61.58;95180.22;5115461;28;20200;-69
2023/09/13 04:00:38;;;;;;;8.00;6.07;;;;;;;15.00;61.54;95183.44;5115085;28;20203;-70
2023/09/13 04:03:05;;;;;;;7.97;6.78;;;;;;;14.98;61.47;95180.22;5114781;28;20191;-69
2023/09/13 04:05:34;;;;;;;8.10;6.80;;;;;;;14.95;61.87;95180.97;5115632;28;20261;-69
2023/09/13 04:08:00;;;;;;;8.23;6.93;;;;;;;14.90;61.93;95181.31;5114893;28;20207;-68
2023/09/13 04:10:27;;;;;;;8.82;6.10;;;;;;;14.88;62.37;95184.47;5114494;28;20655;-68
2023/09/13 04:12:54;;;;;;;9.50;6.03;;;;;;;14.89;62.57;95185.28;5114674;28;20199;-69
2023/09/13 04:15:21;;;;;;;8.35;5.95;;;;;;;14.92;62.39;95184.50;5114767;28;20203;-68
2023/09/13 04:17:48;;;;;;;7.93;6.13;;;;;;;14.96;62.10;95184.53;5114386;28;20631;-68
2023/09/13 04:20:14;;;;;;;7.18;5.95;;;;;;;14.99;62.00;95186.56;5114526;28;20205;-68
2023/09/13 04:22:42;;;;;;;9.25;6.20;;;;;;;14.96;62.09;95188.16;5115233;28;20188;-68
2023/09/13 04:25:10;;;;;;;9.35;7.03;;;;;;;14.96;62.14;95187.31;5115329;28;20195;-69
2023/09/13 04:27:37;;;;;;;11.82;7.07;;;;;;;15.00;62.32;95196.53;5114723;28;20245;-68
2023/09/13 04:30:04;;;;;;;9.52;6.50;;;;;;;15.03;62.33;95192.97;5114578;28;20211;-69
2023/09/13 04:32:31;;;;;;;10.25;6.93;;;;;;;15.00;62.40;95189.00;5114563;28;20242;-68
2023/09/13 04:34:59;;;;;;;12.43;8.10;;;;;;;14.97;62.28;95191.72;5114518;28;20252;-68
2023/09/13 04:37:27;;;;;;;11.77;8.15;;;;;;;14.94;62.52;95190.50;5117360;28;20193;-69
2023/09/13 04:39:55;;;;;;;10.52;7.28;;;;;;;14.95;62.31;95182.97;5118390;28;20585;-69
2023/09/13 04:42:22;;;;;;;10.55;8.35;;;;;;;14.96;62.53;95188.16;5118467;28;20187;-69
2023/09/13 04:44:48;;;;;;;10.63;7.65;;;;;;;15.00;62.46;95193.75;5118645;28;20195;-70
2023/09/13 04:47:15;;;;;;;12.45;7.50;;;;;;;14.99;62.59;95184.59;5118533;28;20184;-69
2023/09/13 04:49:42;;;;;;;12.77;7.70;;;;;;;15.03;62.56;95195.75;5118652;28;20234;-69
2023/09/13 04:52:10;;;;;;;10.35;7.40;;;;;;;15.02;62.66;95191.38;5118900;28;20203;-69
2023/09/13 04:54:37;;;;;;;10.93;7.28;;;;;;;15.05;62.56;95187.84;5118853;28;20594;-69
2023/09/13 04:57:05;;;;;;;12.10;7.35;;;;;;;15.10;62.52;95185.50;5118647;28;20199;-69
2023/09/13 04:59:42;;;;;;;12.50;7.45;;;;;;;15.15;62.85;95189.94;5118442;28;20204;-70
2023/09/13 05:02:10;;;;;;;12.77;7.05;;;;;;;15.21;62.67;95188.41;5118693;28;20195;-69
2023/09/13 05:04:37;;;;;;;17.45;7.85;;;;;;;15.24;62.57;95186.88;5118858;28;20206;-69
2023/09/13 05:07:03;;;;;;;10.80;6.97;;;;;;;15.25;62.88;95189.28;5118580;28;20222;-69
2023/09/13 05:09:30;;;;;;;12.07;7.10;;;;;;;15.25;63.01;95182.91;5118255;28;20222;-69
2023/09/13 05:11:57;;;;;;;13.60;6.93;;;;;;;15.27;63.32;95184.13;5118083;28;20207;-69
2023/09/13 05:14:25;;;;;;;11.05;7.00;;;;;;;15.32;63.03;95182.97;5118696;28;20199;-70
2023/09/13 05:16:52;;;;;;;9.35;7.07;;;;;;;15.39;63.08;95186.63;5118182;28;20206;-69
2023/09/13 05:19:19;;;;;;;11.23;6.75;;;;;;;15.43;62.56;95183.09;5118187;28;20207;-69
2023/09/13 05:21:45;;;;;;;9.45;6.90;;;;;;;15.49;63.14;95184.34;5117946;28;20207;-69
2023/09/13 05:24:12;;;;;;;7.90;6.70;;;;;;;15.55;63.49;95193.97;5118874;28;20210;-69
2023/09/13 05:26:39;;;;;;;9.88;6.88;;;;;;;15.60;62.86;95193.59;5117786;28;20630;-69
2023/09/13 05:29:06;;;;;;;12.10;6.82;;;;;;;15.67;63.11;95190.91;5117532;28;20231;-69
2023/09/13 05:31:34;;;;;;;11.18;6.57;;;;;;;15.76;62.74;95187.81;5117143;28;20254;-69
2023/09/13 05:34:00;;;;;;;10.52;6.72;;;;;;;15.86;61.96;95198.22;5116585;28;20206;-69
2023/09/13 05:36:27;;;;;;;8.77;6.55;;;;;;;15.95;62.02;95195.16;5117004;28;20191;-69
2023/09/13 05:38:54;;;;;;;10.05;6.28;;;;;;;15.98;61.86;95188.81;5116103;28;20639;-69
2023/09/13 05:41:21;;;;;;;9.13;6.40;;;;;;;16.02;61.22;95193.22;5116251;28;20192;-69
2023/09/13 05:43:47;;;;;;;6.18;5.30;;;;;;;16.06;59.72;95190.47;5116122;28;20252;-69
2023/09/13 05:46:16;;;;;;;8.18;6.28;;;;;;;16.09;59.54;95190.50;5116077;28;20608;-69
2023/09/13 05:48:44;;;;;;;7.63;5.30;;;;;;;16.15;59.51;95187.34;5115857;28;20188;-69
2023/09/13 05:51:11;;;;;;;5.60;4.88;;;;;;;16.20;58.44;95189.78;5116038;28;20224;-70
2023/09/13 05:53:38;;;;;;;5.47;4.97;;;;;;;16.25;58.71;95192.19;5116985;28;20203;-71
2023/09/13 05:56:05;;;;;;;6.78;5.40;;;;;;;16.33;58.47;95191.06;5115966;28;20199;-71
2023/09/13 05:58:31;;;;;;;6.63;5.65;;;;;;;16.45;59.89;95187.16;5116523;28;20233;-70
2023/09/13 06:00:58;;;;;;;8.85;5.55;;;;;;;16.49;60.10;95194.38;5116520;28;20207;-71
2023/09/13 06:03:25;;;;;;;5.70;5.22;;;;;;;16.53;59.58;95194.38;5116142;28;20204;-71
2023/09/13 06:05:53;;;;;;;7.38;5.97;;;;;;;16.55;59.76;95180.84;5116071;28;20203;-69
2023/09/13 06:08:20;;;;;;;8.68;7.22;;;;;;;16.59;59.45;95184.47;5116346;28;20203;-69
2023/09/13 06:10:47;;;;;;;8.82;7.93;;;;;;;16.61;58.88;95185.69;5115881;28;20655;-69
2023/09/13 06:13:15;;;;;;;8.77;6.78;;;;;;;16.64;58.75;95188.88;5115678;28;20196;-69
2023/09/13 06:15:41;;;;;;;8.73;6.63;;;;;;;16.67;58.54;95188.09;5115819;28;20183;-69
2023/09/13 06:18:08;;;;;;;10.13;6.45;;;;;;;16.68;58.92;95184.13;5116199;28;20195;-69
2023/09/13 06:20:35;;;;;;;7.93;6.57;;;;;;;16.69;59.24;95189.28;5115647;28;20207;-69
2023/09/13 06:23:03;;;;;;;8.23;6.97;;;;;;;16.73;59.25;95184.53;5115597;28;20275;-69
2023/09/13 06:25:30;;;;;;;9.60;7.03;;;;;;;16.78;59.02;95184.22;5115874;28;20208;-69
2023/09/13 06:27:56;;;;;;;10.93;7.05;;;;;;;16.85;60.06;95180.66;5115644;28;20192;-69
2023/09/13 06:30:23;;;;;;;9.18;7.53;;;;;;;16.88;61.01;95193.00;5067780;27;1362931;-68
2023/09/13 06:32:50;;;;;;;9.82;7.22;;;;;;;16.90;60.97;95188.66;5120187;27;20213;-69
2023/09/13 06:35:17;;;;;;;9.65;7.25;;;;;;;16.93;60.31;95190.66;5120148;27;20187;-69
2023/09/13 06:37:44;;;;;;;8.38;7.07;;;;;;;16.95;61.05;95202.19;5119958;27;20203;-69
2023/09/13 06:40:13;;;;;;;12.27;6.90;;;;;;;16.95;61.83;95196.63;5138206;27;20248;-69
2023/09/13 06:42:39;;;;;;;8.35;7.55;;;;;;;16.96;61.32;95195.44;5120045;27;20201;-69
2023/09/13 06:45:07;;;;;;;7.60;6.80;;;;;;;16.97;61.90;95191.47;5119461;27;20206;-69
2023/09/13 06:47:34;;;;;;;9.10;7.82;;;;;;;17.00;62.69;95195.47;5119586;27;20203;-69
2023/09/13 06:50:01;;;;;;;9.75;7.80;;;;;;;17.05;60.78;95195.88;5119572;27;20211;-69
2023/09/13 06:52:27;;;;;;;9.70;8.38;;;;;;;17.12;58.60;95195.09;5119925;27;20203;-69
2023/09/13 06:54:54;;;;;;;9.15;8.23;;;;;;;17.15;59.00;95207.47;5137579;27;20190;-69
2023/09/13 06:57:22;;;;;;;10.48;7.93;;;;;;;17.14;60.42;95201.09;5119328;27;20183;-69
2023/09/13 06:59:49;;;;;;;9.80;8.13;;;;;;;17.18;60.32;95207.47;5118387;27;20183;-69
2023/09/13 07:02:16;;;;;;;9.98;8.05;;;;;;;17.22;57.87;95208.28;5119651;27;20206;-69
2023/09/13 07:04:42;;;;;;;12.23;8.40;;;;;;;17.24;58.55;95211.47;5119067;27;20203;-69
2023/09/13 07:07:11;;;;;;;10.68;7.90;;;;;;;17.27;59.54;95207.91;5119489;27;20191;-69
2023/09/13 07:09:38;;;;;;;10.38;7.97;;;;;;;17.35;56.31;95200.34;5118974;27;20211;-69
2023/09/13 07:12:05;;;;;;;11.15;7.72;;;;;;;17.39;56.47;95206.72;5119320;27;20195;-69
2023/09/13 07:14:33;;;;;;;10.18;7.68;;;;;;;17.42;56.25;95207.94;5119368;27;20195;-69
2023/09/13 07:17:00;;;;;;;7.78;6.95;;;;;;;17.44;55.91;95206.38;5119485;27;20195;-69
2023/09/13 07:19:27;;;;;;;8.32;5.90;;;;;;;17.48;56.61;95198.03;5118837;27;20202;-69
2023/09/13 07:21:53;;;;;;;6.68;5.45;;;;;;;17.60;57.02;95200.44;5119044;27;20194;-69
2023/09/13 07:24:20;;;;;;;9.93;5.90;;;;;;;17.74;57.25;95199.66;5119239;27;20199;-69
2023/09/13 07:26:47;;;;;;;7.95;6.03;;;;;;;17.88;56.86;95201.72;5118636;27;20615;-69
2023/09/13 07:29:13;;;;;;;7.30;5.88;;;;;;;17.99;56.47;95203.31;5118827;27;20205;-69
2023/09/13 07:31:41;;;;;;;6.47;5.88;;;;;;;18.09;55.54;95195.34;5118330;27;20575;-69
2023/09/13 07:34:08;;;;;;;5.82;5.20;;;;;;;18.17;55.59;95200.53;5119352;27;20191;-69
2023/09/13 07:36:35;;;;;;;9.90;5.25;;;;;;;18.26;54.02;95197.31;5118598;27;20202;-69
2023/09/13 07:39:03;;;;;;;8.27;5.15;;;;;;;18.45;52.96;95199.72;5118781;27;20214;-69
2023/09/13 07:41:30;;;;;;;7.28;5.60;;;;;;;18.53;53.17;95194.91;5118724;27;20229;-69
2023/09/13 07:43:56;;;;;;;5.97;5.38;;;;;;;18.68;52.19;95193.69;5118299;27;20203;-69
2023/09/13 07:46:23;;;;;;;8.25;6.15;;;;;;;18.73;52.38;95184.13;5118671;27;20187;-69
2023/09/13 07:48:51;;;;;;;8.23;5.60;;;;;;;18.71;52.28;95184.53;5118987;27;20206;-69
2023/09/13 07:51:18;;;;;;;7.28;5.38;;;;;;;18.79;52.20;95179.72;5118533;27;20646;-69
2023/09/13 07:53:45;;;;;;;6.13;5.47;;;;;;;18.91;52.14;95186.88;5118209;27;20202;-69
2023/09/13 07:56:12;;;;;;;5.35;4.90;;;;;;;19.01;53.12;95186.03;5118525;27;20194;-69
2023/09/13 07:58:38;;;;;;;5.25;4.75;;;;;;;19.14;53.44;95186.41;5118877;27;20206;-69
2023/09/13 08:01:05;;;;;;;6.35;4.65;;;;;;;19.30;53.22;95188.72;5118645;27;20202;-69
2023/09/13 08:03:32;;;;;;;7.35;5.10;;;;;;;19.52;51.83;95179.03;5118130;27;20573;-69
2023/09/13 08:06:03;;;;;;;8.38;5.88;;;;;;;19.63;50.63;95185.38;5117913;27;20209;-69
2023/09/13 08:08:32;;;;;;;9.73;5.80;;;;;;;19.80;49.55;95185.69;5118076;27;20222;-69
2023/09/13 08:10:59;;;;;;;8.55;5.75;;;;;;;19.88;48.70;95184.44;5117975;27;20250;-69
2023/09/13 08:13:26;;;;;;;6.82;5.05;;;;;;;19.92;49.63;95180.38;5118354;27;20207;-69
2023/09/13 08:15:52;;;;;;;6.63;4.72;;;;;;;20.01;50.35;95188.34;5118195;27;20191;-69
2023/09/13 08:18:19;;;;;;;6.60;5.10;;;;;;;20.11;50.15;95176.25;5117876;28;20195;-69
2023/09/13 08:20:46;;;;;;;5.75;5.03;;;;;;;20.24;49.89;95178.56;5117868;27;20645;-69
2023/09/13 08:23:14;;;;;;;7.93;5.70;;;;;;;20.46;48.93;95174.34;5117946;28;20202;-69
2023/09/13 08:25:42;;;;;;;6.60;5.78;;;;;;;20.64;48.85;95182.63;5118060;28;20187;-69
2023/09/13 08:28:09;;;;;;;8.90;6.28;;;;;;;20.80;47.46;95182.06;5118814;28;20203;-69
2023/09/13 08:30:36;;;;;;;8.02;6.55;;;;;;;20.92;47.48;95181.53;5117797;27;20230;-69
2023/09/13 08:33:04;;;;;;;7.65;5.32;;;;;;;21.01;47.56;95173.41;5118124;28;20541;-69
2023/09/13 08:35:31;;;;;;;7.40;6.05;;;;;;;21.04;47.43;95172.56;5117739;28;20291;-69
2023/09/13 08:37:58;;;;;;;9.27;6.40;;;;;;;21.22;46.75;95166.75;5117591;28;20202;-69
2023/09/13 08:40:26;;;;;;;6.95;6.25;;;;;;;21.60;45.48;95164.66;5118278;28;20241;-69
2023/09/13 08:42:53;;;;;;;8.82;6.18;;;;;;;21.75;44.39;95167.28;5118011;28;20198;-69
2023/09/13 08:45:22;;;;;;;6.07;5.38;;;;;;;21.76;45.03;95168.88;5117784;28;20206;-69
2023/09/13 08:47:50;;;;;;;7.93;6.20;;;;;;;21.76;44.92;95171.69;5117552;28;20626;-69
2023/09/13 08:50:23;;;;;;;7.97;5.53;;;;;;;21.79;44.68;95162.41;5117823;28;20653;-69
2023/09/13 08:52:50;;;;;;;9.27;5.65;;;;;;;21.81;45.74;95152.34;5117740;28;20191;-69
2023/09/13 08:55:18;;;;;;;7.43;6.10;;;;;;;21.89;43.44;95150.22;5117630;28;20195;-69
2023/09/13 08:57:47;;;;;;;8.98;5.25;;;;;;;21.94;44.25;95152.56;5117404;28;20650;-69
2023/09/13 09:00:15;;;;;;;5.93;5.30;;;;;;;21.96;45.21;95149.31;5118452;28;20195;-69
2023/09/13 09:02:43;;;;;;;6.95;5.68;;;;;;;;;;5118107;28;20229;-69
2023/09/13 09:05:12;;;;;;;10.20;5.68;;;;;;;22.10;43.89;95146.28;5117900;28;20202;-69
2023/09/13 09:07:40;;;;;;;5.82;5.32;;;;;;;22.26;43.62;95148.44;5117739;28;20532;-69
2023/09/13 09:10:11;;;;;;;5.88;4.97;;;;;;;22.39;43.77;95146.63;5117280;28;20206;-69
2023/09/13 09:12:40;;;;;;;6.97;4.78;;;;;;;22.54;42.85;95136.72;5117454;28;20240;-69
2023/09/13 09:15:09;;;;;;;5.65;4.65;;;;;;;22.77;41.63;95138.72;5117393;28;20206;-69
2023/09/13 09:17:36;;;;;;;5.70;4.85;;;;;;;22.78;42.68;95136.69;5117754;28;20192;-69
2023/09/13 09:20:03;;;;;;;7.45;4.65;;;;;;;22.77;41.77;95143.56;5117220;28;20207;-68
2023/09/13 09:22:30;;;;;;;8.63;4.68;;;;;;;22.90;41.35;95136.06;5118331;27;20195;-69
2023/09/13 09:24:58;;;;;;;6.05;4.88;;;;;;;23.08;41.91;95137.75;5121738;27;20252;-69
2023/09/13 09:27:24;;;;;;;7.95;5.10;;;;;;;23.24;40.51;95129.38;5121489;27;20187;-69
2023/09/13 09:30:00;;;;;;;5.63;4.70;;;;;;;23.45;40.42;95130.94;5121026;27;20191;-69
2023/09/13 09:32:29;;;;;;;7.03;4.78;;;;;;;23.56;40.13;95137.13;5117359;28;20227;-68
2023/09/13 09:34:56;;;;;;;7.20;4.57;;;;;;;23.49;40.94;95128.84;5117405;28;20678;-69
2023/09/13 09:37:29;;;;;;;5.85;4.70;;;;;;;23.66;39.58;95133.28;5117912;28;20195;-69
2023/09/13 09:39:56;;;;;;;6.80;4.95;;;;;;;23.81;39.40;95125.31;5118629;28;20191;-68
2023/09/13 09:42:23;;;;;;;5.80;4.47;;;;;;;23.89;39.16;95128.75;5118245;28;20192;-68
2023/09/13 09:44:50;;;;;;;5.93;4.43;;;;;;;24.06;39.33;95130.38;5117421;28;20195;-68
2023/09/13 09:47:16;;;;;;;5.90;4.57;;;;;;;24.21;38.63;95125.97;5118550;28;20528;-69
2023/09/13 09:49:47;;;;;;;7.25;4.65;;;;;;;24.38;37.10;95118.31;5117508;28;20199;-68
2023/09/13 09:52:14;;;;;;;8.13;5.30;;;;;;;24.65;37.85;95114.41;5118025;28;20223;-69
2023/09/13 09:54:42;;;;;;;7.20;4.82;;;;;;;24.76;37.35;95102.84;5118458;28;20191;-68
2023/09/13 09:57:09;;;;;;;6.15;4.60;;;;;;;24.91;36.87;95101.22;5116834;28;20210;-68
2023/09/13 09:59:36;;;;;;;9.50;4.60;;;;;;;25.07;37.72;95106.03;5117212;28;20553;-68
2023/09/13 10:02:03;;;;;;;6.13;4.30;;;;;;;25.23;37.35;95097.50;5117256;28;20196;-68
2023/09/13 10:04:30;;;;;;;8.63;4.70;;;;;;;25.24;37.00;95101.09;5118217;28;20192;-68
2023/09/13 10:07:03;;;;;;;5.43;4.53;;;;;;;25.29;36.41;95087.25;5117970;27;20639;-68
2023/09/13 10:09:40;;;;;;;7.93;4.72;;;;;;;25.40;35.96;95095.41;5116909;28;20283;-69
2023/09/13 10:12:09;;;;;;;6.45;4.38;;;;;;;25.54;34.99;95088.53;5116922;28;20223;-68
2023/09/13 10:14:41;;;;;;;6.30;4.72;;;;;;;25.50;35.77;95083.00;5118191;28;20207;-68
2023/09/13 10:17:09;;;;;;;6.75;4.57;;;;;;;25.43;36.82;95084.00;5118013;28;20183;-69
2023/09/13 10:19:36;;;;;;;8.02;4.43;;;;;;;25.43;36.39;95084.00;5117952;28;20192;-69
2023/09/13 10:22:05;;;;;;;7.78;4.60;;;;;;;25.55;35.48;95084.47;5117871;28;20184;-69
2023/09/13 10:24:36;;;;;;;6.88;4.10;;;;;;;25.78;34.57;95080.50;5117250;28;20200;-68
2023/09/13 10:27:06;;;;;;;6.28;4.50;;;;;;;25.82;34.97;95073.56;5117409;28;20255;-69
2023/09/13 10:29:41;;;;;;;8.20;4.55;;;;;;;25.81;35.18;95083.25;5117700;28;20200;-69
2023/09/13 10:32:09;;;;;;;5.63;4.30;;;;;;;25.89;35.21;95076.16;5132578;27;20257;-69
2023/09/13 10:34:40;;;;;;;5.60;4.45;;;;;;;25.71;35.49;95075.91;5136889;27;20214;-68
2023/09/13 10:37:11;;;;;;;8.07;4.65;;;;;;;25.53;36.09;95073.63;5120074;27;20243;-69
2023/09/13 10:39:43;;;;;;;8.18;4.50;;;;;;;25.54;35.67;95065.94;5120005;27;20203;-69
2023/09/13 10:42:10;;;;;;;6.35;4.40;;;;;;;25.61;35.18;95071.38;5119776;27;20191;-69
2023/09/13 10:44:38;;;;;;;6.35;4.70;;;;;;;25.76;35.20;95066.06;5137894;27;20199;-69
2023/09/13 10:47:05;;;;;;;6.57;4.25;;;;;;;25.63;35.94;95057.56;5138049;27;20202;-69
2023/09/13 10:49:33;;;;;;;7.78;4.35;;;;;;;25.50;36.53;95070.91;5119584;27;20263;-69
2023/09/13 10:52:00;;;;;;;5.25;4.43;;;;;;;25.58;35.55;95058.94;5137986;27;20298;-69
2023/09/13 10:54:29;;;;;;;5.82;4.32;;;;;;;25.73;35.44;95059.28;5119636;27;20591;-68
2023/09/13 10:56:56;;;;;;;6.57;4.68;;;;;;;25.77;35.77;95054.31;5119718;27;20198;-68
2023/09/13 10:59:25;;;;;;;6.40;4.55;;;;;;;25.83;35.21;95049.69;5137659;27;20209;-69
2023/09/13 11:01:52;;;;;;;6.70;4.38;;;;;;;26.14;34.90;95049.09;5119478;27;20195;-69
2023/09/13 11:04:20;;;;;;;6.97;4.60;;;;;;;26.26;34.04;95053.16;5119378;27;20195;-69
2023/09/13 11:06:49;;;;;;;7.18;4.57;;;;;;;26.41;33.28;95049.38;5137526;27;20175;-68
2023/09/13 11:09:18;;;;;;;6.63;4.32;;;;;;;26.30;33.44;95039.69;5137282;27;20247;-69
2023/09/13 11:11:51;;;;;;;6.07;4.70;;;;;;;26.21;34.23;95040.38;5119211;27;20223;-68
2023/09/13 11:14:23;;;;;;;6.82;4.28;;;;;;;26.19;34.18;95036.44;5119902;27;20214;-68
2023/09/13 11:16:50;;;;;;;7.75;4.22;;;;;;;26.13;34.55;95030.56;5119270;27;20202;-69
2023/09/13 11:19:17;;;;;;;5.45;4.30;;;;;;;26.20;33.77;95032.34;5136974;27;20195;-69
2023/09/13 11:21:49;;;;;;;4.90;4.35;;;;;;;26.35;33.76;95031.38;5137172;27;20183;-68
2023/09/13 11:24:34;;;;;;;5.00;3.88;;;;;;;26.49;33.31;95026.53;5119445;27;20275;-68
2023/09/13 11:27:11;;;;;;;5.75;3.67;;;;;;;26.45;33.69;95017.34;5118728;27;20626;-69
2023/09/13 11:29:41;;;;;;;4.55;4.15;;;;;;;26.44;33.42;95018.59;5119015;27;20194;-68
2023/09/13 11:32:09;;;;;;;4.65;3.88;;;;;;;26.66;31.93;95013.78;5136507;27;20654;-69
2023/09/13 11:34:37;;;;;;;4.57;4.18;;;;;;;26.61;33.08;95012.31;5119111;27;20662;-70